sensor_id;sensor_type;location;lat;lon;timestamp;P1;durP1;ratioP1;P2;durP2;ratioP2
70560;SDS011;58109;53.570;10.084;2023-03-01T00:01:58;29.10;;;9.57;;
70560;SDS011;58109;53.570;10.084;2023-03-01T00:04:26;22.20;;;9.50;;
70560;SDS011;58109;53.570;10.084;2023-03-01T00:06:52;27.67;;;8.90;;
70560;SDS011;58109;53.570;10.084;2023-03-01T00:09:20;25.67;;;8.60;;
70560;SDS011;58109;53.570;10.084;2023-03-01T00:11:45;23.87;;;10.40;;
70560;SDS011;58109;53.570;10.084;2023-03-01T00:14:11;29.50;;;10.20;;
70560;SDS011;58109;53.570;10.084;2023-03-01T00:16:38;28.60;;;15.98;;
70560;SDS011;58109;53.570;10.084;2023-03-01T00:19:06;31.60;;;10.80;;
70560;SDS011;58109;53.570;10.084;2023-03-01T00:21:33;21.00;;;9.20;;
70560;SDS011;58109;53.570;10.084;2023-03-01T00:24:00;22.10;;;9.00;;
70560;SDS011;58109;53.570;10.084;2023-03-01T00:26:26;18.15;;;9.95;;
70560;SDS011;58109;53.570;10.084;2023-03-01T00:28:56;25.23;;;10.77;;
70560;SDS011;58109;53.570;10.084;2023-03-01T00:31:23;25.77;;;10.30;;
70560;SDS011;58109;53.570;10.084;2023-03-01T00:33:54;26.92;;;9.90;;
70560;SDS011;58109;53.570;10.084;2023-03-01T00:36:22;25.75;;;9.43;;
70560;SDS011;58109;53.570;10.084;2023-03-01T00:38:48;23.83;;;9.60;;
70560;SDS011;58109;53.570;10.084;2023-03-01T00:41:14;27.17;;;10.73;;
70560;SDS011;58109;53.570;10.084;2023-03-01T00:43:40;27.30;;;10.93;;
70560;SDS011;58109;53.570;10.084;2023-03-01T00:46:09;23.70;;;10.60;;
70560;SDS011;58109;53.570;10.084;2023-03-01T00:48:36;21.40;;;11.23;;
70560;SDS011;58109;53.570;10.084;2023-03-01T00:51:14;29.92;;;11.25;;
70560;SDS011;58109;53.570;10.084;2023-03-01T00:53:41;24.27;;;11.85;;
70560;SDS011;58109;53.570;10.084;2023-03-01T00:56:07;30.60;;;13.30;;
70560;SDS011;58109;53.570;10.084;2023-03-01T00:58:34;29.10;;;11.07;;
70560;SDS011;58109;53.570;10.084;2023-03-01T01:01:00;30.45;;;13.82;;
70560;SDS011;58109;53.570;10.084;2023-03-01T01:03:25;22.70;;;10.60;;
70560;SDS011;58109;53.570;10.084;2023-03-01T01:05:51;23.33;;;11.30;;
70560;SDS011;58109;53.570;10.084;2023-03-01T01:08:17;30.33;;;11.30;;
70560;SDS011;58109;53.570;10.084;2023-03-01T01:10:44;22.58;;;11.70;;
70560;SDS011;58109;53.570;10.084;2023-03-01T01:13:10;24.60;;;11.93;;
70560;SDS011;58109;53.570;10.084;2023-03-01T01:15:37;34.00;;;12.60;;
70560;SDS011;58109;53.570;10.084;2023-03-01T01:18:03;25.20;;;11.63;;
70560;SDS011;58109;53.570;10.084;2023-03-01T01:20:28;28.83;;;11.13;;
70560;SDS011;58109;53.570;10.084;2023-03-01T01:22:56;28.00;;;12.10;;
70560;SDS011;58109;53.570;10.084;2023-03-01T01:25:22;31.23;;;11.38;;
70560;SDS011;58109;53.570;10.084;2023-03-01T01:27:49;21.13;;;10.30;;
70560;SDS011;58109;53.570;10.084;2023-03-01T01:30:15;27.47;;;11.30;;
70560;SDS011;58109;53.570;10.084;2023-03-01T01:32:41;23.60;;;10.63;;
70560;SDS011;58109;53.570;10.084;2023-03-01T01:35:06;26.43;;;12.03;;
70560;SDS011;58109;53.570;10.084;2023-03-01T01:37:32;30.37;;;13.27;;
70560;SDS011;58109;53.570;10.084;2023-03-01T01:40:00;27.13;;;11.77;;
70560;SDS011;58109;53.570;10.084;2023-03-01T01:42:29;27.42;;;13.65;;
70560;SDS011;58109;53.570;10.084;2023-03-01T01:48:03;36.90;;;12.90;;
70560;SDS011;58109;53.570;10.084;2023-03-01T01:50:30;29.30;;;12.77;;
70560;SDS011;58109;53.570;10.084;2023-03-01T01:53:02;28.30;;;13.10;;
70560;SDS011;58109;53.570;10.084;2023-03-01T01:55:30;33.60;;;13.20;;
70560;SDS011;58109;53.570;10.084;2023-03-01T01:58:01;34.33;;;12.88;;
70560;SDS011;58109;53.570;10.084;2023-03-01T02:00:28;32.45;;;12.43;;
70560;SDS011;58109;53.570;10.084;2023-03-01T02:02:58;32.35;;;12.43;;
70560;SDS011;58109;53.570;10.084;2023-03-01T02:05:32;28.25;;;12.75;;
70560;SDS011;58109;53.570;10.084;2023-03-01T02:08:01;31.70;;;12.82;;
70560;SDS011;58109;53.570;10.084;2023-03-01T02:10:27;33.20;;;13.83;;
70560;SDS011;58109;53.570;10.084;2023-03-01T02:12:52;36.03;;;13.67;;
70560;SDS011;58109;53.570;10.084;2023-03-01T02:15:18;29.70;;;13.47;;
70560;SDS011;58109;53.570;10.084;2023-03-01T02:17:44;32.23;;;12.70;;
70560;SDS011;58109;53.570;10.084;2023-03-01T02:22:37;30.92;;;12.93;;
70560;SDS011;58109;53.570;10.084;2023-03-01T02:30:28;29.85;;;12.35;;
70560;SDS011;58109;53.570;10.084;2023-03-01T02:32:55;24.80;;;12.45;;
70560;SDS011;58109;53.570;10.084;2023-03-01T02:35:27;25.42;;;12.20;;
70560;SDS011;58109;53.570;10.084;2023-03-01T02:37:57;25.33;;;11.50;;
70560;SDS011;58109;53.570;10.084;2023-03-01T02:40:25;25.60;;;11.05;;
70560;SDS011;58109;53.570;10.084;2023-03-01T02:42:53;30.67;;;12.95;;
70560;SDS011;58109;53.570;10.084;2023-03-01T02:45:21;31.02;;;12.90;;
70560;SDS011;58109;53.570;10.084;2023-03-01T02:47:52;30.75;;;11.75;;
70560;SDS011;58109;53.570;10.084;2023-03-01T02:52:57;30.55;;;12.20;;
70560;SDS011;58109;53.570;10.084;2023-03-01T02:55:29;26.80;;;11.00;;
70560;SDS011;58109;53.570;10.084;2023-03-01T02:57:54;20.73;;;11.30;;
70560;SDS011;58109;53.570;10.084;2023-03-01T03:00:21;29.87;;;11.83;;
70560;SDS011;58109;53.570;10.084;2023-03-01T03:02:52;21.40;;;12.30;;
70560;SDS011;58109;53.570;10.084;2023-03-01T03:05:19;26.88;;;12.82;;
70560;SDS011;58109;53.570;10.084;2023-03-01T03:07:47;22.33;;;11.77;;
70560;SDS011;58109;53.570;10.084;2023-03-01T03:10:19;29.08;;;12.00;;
70560;SDS011;58109;53.570;10.084;2023-03-01T03:12:59;21.63;;;10.70;;
70560;SDS011;58109;53.570;10.084;2023-03-01T03:15:35;23.80;;;10.63;;
70560;SDS011;58109;53.570;10.084;2023-03-01T03:18:01;25.33;;;11.20;;
70560;SDS011;58109;53.570;10.084;2023-03-01T03:20:27;18.92;;;9.32;;
70560;SDS011;58109;53.570;10.084;2023-03-01T03:22:53;22.35;;;11.20;;
70560;SDS011;58109;53.570;10.084;2023-03-01T03:25:20;22.20;;;10.68;;
70560;SDS011;58109;53.570;10.084;2023-03-01T03:27:46;23.13;;;10.73;;
70560;SDS011;58109;53.570;10.084;2023-03-01T03:30:14;19.90;;;11.18;;
70560;SDS011;58109;53.570;10.084;2023-03-01T03:32:43;29.65;;;10.20;;
70560;SDS011;58109;53.570;10.084;2023-03-01T03:35:19;26.95;;;10.48;;
70560;SDS011;58109;53.570;10.084;2023-03-01T03:37:46;23.20;;;11.80;;
70560;SDS011;58109;53.570;10.084;2023-03-01T03:40:26;25.45;;;11.23;;
70560;SDS011;58109;53.570;10.084;2023-03-01T03:42:57;22.13;;;10.77;;
70560;SDS011;58109;53.570;10.084;2023-03-01T03:45:25;23.88;;;11.45;;
70560;SDS011;58109;53.570;10.084;2023-03-01T03:47:50;16.60;;;9.83;;
70560;SDS011;58109;53.570;10.084;2023-03-01T03:50:16;31.43;;;10.60;;
70560;SDS011;58109;53.570;10.084;2023-03-01T03:52:42;20.55;;;10.00;;
70560;SDS011;58109;53.570;10.084;2023-03-01T03:55:11;20.38;;;10.63;;
70560;SDS011;58109;53.570;10.084;2023-03-01T03:57:37;17.60;;;9.88;;
70560;SDS011;58109;53.570;10.084;2023-03-01T04:00:04;20.20;;;10.13;;
70560;SDS011;58109;53.570;10.084;2023-03-01T04:02:46;25.25;;;10.30;;
70560;SDS011;58109;53.570;10.084;2023-03-01T04:05:14;25.05;;;9.55;;
70560;SDS011;58109;53.570;10.084;2023-03-01T04:07:41;18.95;;;9.15;;
70560;SDS011;58109;53.570;10.084;2023-03-01T04:10:16;20.63;;;9.32;;
70560;SDS011;58109;53.570;10.084;2023-03-01T04:12:42;24.40;;;10.13;;
70560;SDS011;58109;53.570;10.084;2023-03-01T04:15:12;20.00;;;8.73;;
70560;SDS011;58109;53.570;10.084;2023-03-01T04:17:38;20.58;;;9.55;;
70560;SDS011;58109;53.570;10.084;2023-03-01T04:20:11;18.55;;;9.10;;
70560;SDS011;58109;53.570;10.084;2023-03-01T04:22:38;22.80;;;9.55;;
70560;SDS011;58109;53.570;10.084;2023-03-01T04:25:07;24.30;;;9.73;;
70560;SDS011;58109;53.570;10.084;2023-03-01T04:27:33;21.87;;;9.53;;
70560;SDS011;58109;53.570;10.084;2023-03-01T04:29:59;19.98;;;9.63;;
70560;SDS011;58109;53.570;10.084;2023-03-01T04:32:24;22.13;;;8.87;;
70560;SDS011;58109;53.570;10.084;2023-03-01T04:34:52;20.73;;;9.68;;
70560;SDS011;58109;53.570;10.084;2023-03-01T04:37:17;22.60;;;9.30;;
70560;SDS011;58109;53.570;10.084;2023-03-01T04:39:45;22.20;;;8.75;;
70560;SDS011;58109;53.570;10.084;2023-03-01T04:42:12;15.52;;;8.02;;
70560;SDS011;58109;53.570;10.084;2023-03-01T04:44:37;20.17;;;8.53;;
70560;SDS011;58109;53.570;10.084;2023-03-01T04:47:08;21.95;;;9.50;;
70560;SDS011;58109;53.570;10.084;2023-03-01T04:49:38;24.77;;;9.15;;
70560;SDS011;58109;53.570;10.084;2023-03-01T04:52:03;19.23;;;9.93;;
70560;SDS011;58109;53.570;10.084;2023-03-01T04:54:30;17.03;;;8.17;;
70560;SDS011;58109;53.570;10.084;2023-03-01T04:56:59;17.50;;;9.15;;
70560;SDS011;58109;53.570;10.084;2023-03-01T04:59:25;23.00;;;8.70;;
70560;SDS011;58109;53.570;10.084;2023-03-01T05:01:54;18.55;;;8.60;;
70560;SDS011;58109;53.570;10.084;2023-03-01T05:04:21;16.67;;;8.77;;
70560;SDS011;58109;53.570;10.084;2023-03-01T05:06:47;16.15;;;8.75;;
70560;SDS011;58109;53.570;10.084;2023-03-01T05:09:15;21.77;;;8.63;;
70560;SDS011;58109;53.570;10.084;2023-03-01T05:11:40;19.47;;;8.27;;
70560;SDS011;58109;53.570;10.084;2023-03-01T05:14:06;17.33;;;8.60;;
70560;SDS011;58109;53.570;10.084;2023-03-01T05:16:34;20.45;;;8.15;;
70560;SDS011;58109;53.570;10.084;2023-03-01T05:19:01;22.33;;;9.40;;
70560;SDS011;58109;53.570;10.084;2023-03-01T05:21:36;28.17;;;9.13;;
70560;SDS011;58109;53.570;10.084;2023-03-01T05:24:22;20.10;;;8.57;;
70560;SDS011;58109;53.570;10.084;2023-03-01T05:26:50;18.30;;;9.33;;
70560;SDS011;58109;53.570;10.084;2023-03-01T05:29:21;22.27;;;9.68;;
70560;SDS011;58109;53.570;10.084;2023-03-01T05:31:51;21.20;;;8.48;;
70560;SDS011;58109;53.570;10.084;2023-03-01T05:34:53;14.05;;;7.90;;
70560;SDS011;58109;53.570;10.084;2023-03-01T05:37:14;16.23;;;8.15;;
70560;SDS011;58109;53.570;10.084;2023-03-01T05:45:10;16.52;;;8.70;;
70560;SDS011;58109;53.570;10.084;2023-03-01T05:47:37;15.65;;;8.35;;
70560;SDS011;58109;53.570;10.084;2023-03-01T05:50:03;27.30;;;8.83;;
70560;SDS011;58109;53.570;10.084;2023-03-01T05:52:28;24.37;;;8.87;;
70560;SDS011;58109;53.570;10.084;2023-03-01T05:54:57;20.97;;;8.70;;
70560;SDS011;58109;53.570;10.084;2023-03-01T05:57:45;18.88;;;8.73;;
70560;SDS011;58109;53.570;10.084;2023-03-01T06:00:11;17.52;;;7.55;;
70560;SDS011;58109;53.570;10.084;2023-03-01T06:02:42;14.80;;;7.65;;
70560;SDS011;58109;53.570;10.084;2023-03-01T06:05:12;13.60;;;7.68;;
70560;SDS011;58109;53.570;10.084;2023-03-01T06:07:44;17.88;;;8.60;;
70560;SDS011;58109;53.570;10.084;2023-03-01T06:10:09;17.30;;;7.72;;
70560;SDS011;58109;53.570;10.084;2023-03-01T06:12:36;15.10;;;8.50;;
70560;SDS011;58109;53.570;10.084;2023-03-01T06:15:07;21.17;;;8.60;;
70560;SDS011;58109;53.570;10.084;2023-03-01T06:17:36;19.92;;;7.90;;
70560;SDS011;58109;53.570;10.084;2023-03-01T06:20:03;20.88;;;7.25;;
70560;SDS011;58109;53.570;10.084;2023-03-01T06:22:29;21.52;;;8.40;;
70560;SDS011;58109;53.570;10.084;2023-03-01T06:24:55;16.13;;;7.03;;
70560;SDS011;58109;53.570;10.084;2023-03-01T06:27:20;25.83;;;8.50;;
70560;SDS011;58109;53.570;10.084;2023-03-01T06:29:51;14.52;;;7.00;;
70560;SDS011;58109;53.570;10.084;2023-03-01T06:32:19;29.65;;;8.73;;
70560;SDS011;58109;53.570;10.084;2023-03-01T06:34:45;21.80;;;8.18;;
70560;SDS011;58109;53.570;10.084;2023-03-01T06:37:10;22.20;;;8.70;;
70560;SDS011;58109;53.570;10.084;2023-03-01T06:39:35;18.37;;;7.90;;
70560;SDS011;58109;53.570;10.084;2023-03-01T06:42:01;18.73;;;7.93;;
70560;SDS011;58109;53.570;10.084;2023-03-01T06:44:26;21.13;;;7.53;;
70560;SDS011;58109;53.570;10.084;2023-03-01T06:46:52;23.53;;;9.47;;
70560;SDS011;58109;53.570;10.084;2023-03-01T06:49:20;22.20;;;9.15;;
70560;SDS011;58109;53.570;10.084;2023-03-01T06:51:46;16.20;;;8.93;;
70560;SDS011;58109;53.570;10.084;2023-03-01T06:54:11;22.10;;;8.20;;
70560;SDS011;58109;53.570;10.084;2023-03-01T06:56:37;17.63;;;7.93;;
70560;SDS011;58109;53.570;10.084;2023-03-01T06:59:06;17.48;;;8.00;;
70560;SDS011;58109;53.570;10.084;2023-03-01T07:01:33;16.50;;;8.77;;
70560;SDS011;58109;53.570;10.084;2023-03-01T07:03:59;20.38;;;8.98;;
70560;SDS011;58109;53.570;10.084;2023-03-01T07:06:24;17.87;;;8.07;;
70560;SDS011;58109;53.570;10.084;2023-03-01T07:08:52;21.92;;;8.20;;
70560;SDS011;58109;53.570;10.084;2023-03-01T07:11:17;21.73;;;7.93;;
70560;SDS011;58109;53.570;10.084;2023-03-01T07:13:42;14.57;;;7.60;;
70560;SDS011;58109;53.570;10.084;2023-03-01T07:16:10;16.48;;;7.32;;
70560;SDS011;58109;53.570;10.084;2023-03-01T07:18:36;11.80;;;7.13;;
70560;SDS011;58109;53.570;10.084;2023-03-01T07:21:05;17.77;;;8.27;;
70560;SDS011;58109;53.570;10.084;2023-03-01T07:23:36;18.90;;;6.53;;
70560;SDS011;58109;53.570;10.084;2023-03-01T07:26:02;18.50;;;7.22;;
70560;SDS011;58109;53.570;10.084;2023-03-01T07:28:36;17.50;;;7.00;;
70560;SDS011;58109;53.570;10.084;2023-03-01T07:31:04;12.15;;;6.22;;
70560;SDS011;58109;53.570;10.084;2023-03-01T07:33:31;15.38;;;6.60;;
70560;SDS011;58109;53.570;10.084;2023-03-01T07:36:00;12.30;;;6.47;;
70560;SDS011;58109;53.570;10.084;2023-03-01T07:38:27;11.98;;;5.40;;
70560;SDS011;58109;53.570;10.084;2023-03-01T07:40:53;13.25;;;6.22;;
70560;SDS011;58109;53.570;10.084;2023-03-01T07:43:18;11.93;;;6.30;;
70560;SDS011;58109;53.570;10.084;2023-03-01T07:45:45;17.73;;;6.75;;
70560;SDS011;58109;53.570;10.084;2023-03-01T07:48:10;13.17;;;6.63;;
70560;SDS011;58109;53.570;10.084;2023-03-01T07:50:36;14.53;;;7.53;;
70560;SDS011;58109;53.570;10.084;2023-03-01T07:53:01;16.30;;;8.10;;
70560;SDS011;58109;53.570;10.084;2023-03-01T07:55:27;31.63;;;8.77;;
70560;SDS011;58109;53.570;10.084;2023-03-01T07:57:52;20.57;;;8.73;;
70560;SDS011;58109;53.570;10.084;2023-03-01T08:00:18;20.10;;;10.10;;
70560;SDS011;58109;53.570;10.084;2023-03-01T08:02:44;28.00;;;11.00;;
70560;SDS011;58109;53.570;10.084;2023-03-01T08:05:12;19.73;;;10.57;;
70560;SDS011;58109;53.570;10.084;2023-03-01T08:07:38;18.00;;;9.80;;
70560;SDS011;58109;53.570;10.084;2023-03-01T08:10:03;17.60;;;9.43;;
70560;SDS011;58109;53.570;10.084;2023-03-01T08:12:32;19.50;;;10.02;;
70560;SDS011;58109;53.570;10.084;2023-03-01T08:14:57;26.73;;;11.43;;
70560;SDS011;58109;53.570;10.084;2023-03-01T08:17:23;18.30;;;10.43;;
70560;SDS011;58109;53.570;10.084;2023-03-01T08:19:48;18.47;;;9.83;;
70560;SDS011;58109;53.570;10.084;2023-03-01T08:22:14;23.83;;;11.20;;
70560;SDS011;58109;53.570;10.084;2023-03-01T08:24:42;25.23;;;9.90;;
70560;SDS011;58109;53.570;10.084;2023-03-01T08:27:10;18.15;;;9.35;;
70560;SDS011;58109;53.570;10.084;2023-03-01T08:29:37;22.73;;;10.00;;
70560;SDS011;58109;53.570;10.084;2023-03-01T08:32:02;17.97;;;9.37;;
70560;SDS011;58109;53.570;10.084;2023-03-01T08:34:30;17.25;;;9.88;;
70560;SDS011;58109;53.570;10.084;2023-03-01T08:36:56;23.90;;;10.27;;
70560;SDS011;58109;53.570;10.084;2023-03-01T08:39:24;19.10;;;9.90;;
70560;SDS011;58109;53.570;10.084;2023-03-01T08:41:49;19.43;;;10.03;;
70560;SDS011;58109;53.570;10.084;2023-03-01T08:44:15;21.20;;;9.90;;
70560;SDS011;58109;53.570;10.084;2023-03-01T08:46:47;23.85;;;10.32;;
70560;SDS011;58109;53.570;10.084;2023-03-01T08:49:16;25.75;;;10.23;;
70560;SDS011;58109;53.570;10.084;2023-03-01T08:51:43;19.52;;;10.07;;
70560;SDS011;58109;53.570;10.084;2023-03-01T08:54:13;18.77;;;9.35;;
70560;SDS011;58109;53.570;10.084;2023-03-01T08:56:40;23.35;;;10.07;;
70560;SDS011;58109;53.570;10.084;2023-03-01T08:59:06;25.03;;;10.57;;
70560;SDS011;58109;53.570;10.084;2023-03-01T09:01:31;19.13;;;9.40;;
70560;SDS011;58109;53.570;10.084;2023-03-01T09:03:57;19.97;;;9.60;;
70560;SDS011;58109;53.570;10.084;2023-03-01T09:06:24;17.00;;;9.40;;
70560;SDS011;58109;53.570;10.084;2023-03-01T09:08:49;19.30;;;10.50;;
70560;SDS011;58109;53.570;10.084;2023-03-01T09:11:19;23.25;;;9.52;;
70560;SDS011;58109;53.570;10.084;2023-03-01T09:13:46;22.15;;;9.05;;
70560;SDS011;58109;53.570;10.084;2023-03-01T09:16:14;22.83;;;9.77;;
70560;SDS011;58109;53.570;10.084;2023-03-01T09:18:41;18.35;;;10.10;;
70560;SDS011;58109;53.570;10.084;2023-03-01T09:21:08;20.47;;;9.20;;
70560;SDS011;58109;53.570;10.084;2023-03-01T09:23:39;21.00;;;9.85;;
70560;SDS011;58109;53.570;10.084;2023-03-01T09:26:09;21.25;;;9.93;;
70560;SDS011;58109;53.570;10.084;2023-03-01T09:28:38;22.63;;;11.13;;
70560;SDS011;58109;53.570;10.084;2023-03-01T09:31:05;20.10;;;11.20;;
70560;SDS011;58109;53.570;10.084;2023-03-01T09:33:33;24.40;;;11.67;;
70560;SDS011;58109;53.570;10.084;2023-03-01T09:35:59;22.90;;;11.67;;
70560;SDS011;58109;53.570;10.084;2023-03-01T09:38:26;17.57;;;10.83;;
70560;SDS011;58109;53.570;10.084;2023-03-01T09:40:56;23.40;;;13.02;;
70560;SDS011;58109;53.570;10.084;2023-03-01T09:45:50;22.20;;;12.27;;
70560;SDS011;58109;53.570;10.084;2023-03-01T09:48:21;30.37;;;13.33;;
70560;SDS011;58109;53.570;10.084;2023-03-01T09:50:49;27.00;;;13.20;;
70560;SDS011;58109;53.570;10.084;2023-03-01T10:00:54;18.87;;;9.70;;
70560;SDS011;58109;53.570;10.084;2023-03-01T10:08:38;21.33;;;11.67;;
70560;SDS011;58109;53.570;10.084;2023-03-01T10:11:19;30.73;;;10.83;;
70560;SDS011;58109;53.570;10.084;2023-03-01T10:16:43;19.53;;;10.40;;
70560;SDS011;58109;53.570;10.084;2023-03-01T10:19:19;19.43;;;10.23;;
70560;SDS011;58109;53.570;10.084;2023-03-01T10:21:48;22.40;;;10.97;;
70560;SDS011;58109;53.570;10.084;2023-03-01T10:24:18;23.00;;;11.27;;
70560;SDS011;58109;53.570;10.084;2023-03-01T10:26:56;20.20;;;9.70;;
70560;SDS011;58109;53.570;10.084;2023-03-01T10:29:28;21.33;;;10.47;;
70560;SDS011;58109;53.570;10.084;2023-03-01T10:31:56;16.67;;;10.83;;
70560;SDS011;58109;53.570;10.084;2023-03-01T10:34:31;19.00;;;9.33;;
70560;SDS011;58109;53.570;10.084;2023-03-01T10:37:11;20.43;;;8.87;;
70560;SDS011;58109;53.570;10.084;2023-03-01T10:40:02;17.80;;;9.10;;
70560;SDS011;58109;53.570;10.084;2023-03-01T10:43:10;18.00;;;10.30;;
70560;SDS011;58109;53.570;10.084;2023-03-01T10:50:37;17.70;;;9.03;;
70560;SDS011;58109;53.570;10.084;2023-03-01T10:53:04;20.07;;;9.10;;
70560;SDS011;58109;53.570;10.084;2023-03-01T11:00:47;14.73;;;8.70;;
70560;SDS011;58109;53.570;10.084;2023-03-01T11:03:15;13.60;;;8.90;;
70560;SDS011;58109;53.570;10.084;2023-03-01T11:05:50;17.93;;;8.90;;
70560;SDS011;58109;53.570;10.084;2023-03-01T11:08:39;20.50;;;9.20;;
70560;SDS011;58109;53.570;10.084;2023-03-01T11:16:42;14.73;;;8.67;;
70560;SDS011;58109;53.570;10.084;2023-03-01T11:21:44;17.53;;;9.03;;
70560;SDS011;58109;53.570;10.084;2023-03-01T11:24:25;19.50;;;8.27;;
70560;SDS011;58109;53.570;10.084;2023-03-01T11:27:21;18.17;;;8.30;;
70560;SDS011;58109;53.570;10.084;2023-03-01T11:32:20;14.90;;;8.30;;
70560;SDS011;58109;53.570;10.084;2023-03-01T11:35:01;16.10;;;9.17;;
70560;SDS011;58109;53.570;10.084;2023-03-01T11:40:35;20.03;;;9.80;;
70560;SDS011;58109;53.570;10.084;2023-03-01T11:48:24;19.50;;;8.40;;
70560;SDS011;58109;53.570;10.084;2023-03-01T12:05:38;9.60;;;6.50;;
70560;SDS011;58109;53.570;10.084;2023-03-01T12:10:56;15.83;;;7.13;;
70560;SDS011;58109;53.570;10.084;2023-03-01T12:24:18;18.23;;;7.67;;
70560;SDS011;58109;53.570;10.084;2023-03-01T12:32:10;14.60;;;8.20;;
70560;SDS011;58109;53.570;10.084;2023-03-01T12:34:47;17.83;;;8.90;;
70560;SDS011;58109;53.570;10.084;2023-03-01T12:50:44;13.00;;;6.10;;
70560;SDS011;58109;53.570;10.084;2023-03-01T12:55:48;12.77;;;6.53;;
70560;SDS011;58109;53.570;10.084;2023-03-01T13:03:56;11.93;;;5.73;;
70560;SDS011;58109;53.570;10.084;2023-03-01T13:11:46;14.80;;;6.40;;
70560;SDS011;58109;53.570;10.084;2023-03-01T13:14:56;13.97;;;6.60;;
70560;SDS011;58109;53.570;10.084;2023-03-01T13:16:59;10.97;;;7.13;;
70560;SDS011;58109;53.570;10.084;2023-03-01T13:19:25;9.40;;;6.93;;
70560;SDS011;58109;53.570;10.084;2023-03-01T13:21:54;13.07;;;6.97;;
70560;SDS011;58109;53.570;10.084;2023-03-01T13:27:08;15.40;;;7.03;;
70560;SDS011;58109;53.570;10.084;2023-03-01T13:34:51;14.90;;;6.60;;
70560;SDS011;58109;53.570;10.084;2023-03-01T13:37:25;11.30;;;6.40;;
70560;SDS011;58109;53.570;10.084;2023-03-01T13:39:55;10.10;;;6.67;;
70560;SDS011;58109;53.570;10.084;2023-03-01T13:45:25;13.60;;;6.23;;
70560;SDS011;58109;53.570;10.084;2023-03-01T13:48:15;9.80;;;5.70;;
70560;SDS011;58109;53.570;10.084;2023-03-01T13:50:48;14.97;;;5.90;;
70560;SDS011;58109;53.570;10.084;2023-03-01T13:53:24;10.17;;;5.77;;
70560;SDS011;58109;53.570;10.084;2023-03-01T13:55:51;19.50;;;6.03;;
70560;SDS011;58109;53.570;10.084;2023-03-01T13:58:24;8.23;;;4.70;;
70560;SDS011;58109;53.570;10.084;2023-03-01T14:01:01;10.37;;;6.17;;
70560;SDS011;58109;53.570;10.084;2023-03-01T14:03:28;9.00;;;5.60;;
70560;SDS011;58109;53.570;10.084;2023-03-01T14:08:27;13.60;;;5.00;;
70560;SDS011;58109;53.570;10.084;2023-03-01T14:19:08;6.03;;;4.40;;
70560;SDS011;58109;53.570;10.084;2023-03-01T14:21:44;9.10;;;4.63;;
70560;SDS011;58109;53.570;10.084;2023-03-01T14:24:21;10.63;;;4.70;;
70560;SDS011;58109;53.570;10.084;2023-03-01T14:26:50;16.07;;;5.00;;
70560;SDS011;58109;53.570;10.084;2023-03-01T14:29:34;11.33;;;5.23;;
70560;SDS011;58109;53.570;10.084;2023-03-01T14:32:09;9.80;;;4.70;;
70560;SDS011;58109;53.570;10.084;2023-03-01T14:34:45;7.80;;;4.07;;
70560;SDS011;58109;53.570;10.084;2023-03-01T14:39:45;6.63;;;4.40;;
70560;SDS011;58109;53.570;10.084;2023-03-01T14:42:13;11.60;;;4.40;;
70560;SDS011;58109;53.570;10.084;2023-03-01T14:44:41;8.13;;;5.13;;
70560;SDS011;58109;53.570;10.084;2023-03-01T14:47:11;8.33;;;5.50;;
70560;SDS011;58109;53.570;10.084;2023-03-01T14:49:38;9.33;;;4.77;;
70560;SDS011;58109;53.570;10.084;2023-03-01T14:52:07;7.07;;;4.43;;
70560;SDS011;58109;53.570;10.084;2023-03-01T14:54:49;6.97;;;4.23;;
70560;SDS011;58109;53.570;10.084;2023-03-01T14:57:16;13.13;;;5.00;;
70560;SDS011;58109;53.570;10.084;2023-03-01T14:59:49;8.23;;;5.30;;
70560;SDS011;58109;53.570;10.084;2023-03-01T15:02:22;5.80;;;4.53;;
70560;SDS011;58109;53.570;10.084;2023-03-01T15:04:50;8.10;;;5.13;;
70560;SDS011;58109;53.570;10.084;2023-03-01T15:07:17;9.40;;;5.37;;
70560;SDS011;58109;53.570;10.084;2023-03-01T15:09:46;9.40;;;5.30;;
70560;SDS011;58109;53.570;10.084;2023-03-01T15:14:56;8.43;;;5.30;;
70560;SDS011;58109;53.570;10.084;2023-03-01T15:17:31;10.10;;;5.40;;
70560;SDS011;58109;53.570;10.084;2023-03-01T15:20:00;8.33;;;4.73;;
70560;SDS011;58109;53.570;10.084;2023-03-01T15:22:30;9.60;;;5.00;;
70560;SDS011;58109;53.570;10.084;2023-03-01T15:24:55;9.03;;;5.03;;
70560;SDS011;58109;53.570;10.084;2023-03-01T15:27:22;9.47;;;5.03;;
70560;SDS011;58109;53.570;10.084;2023-03-01T15:29:55;7.10;;;4.23;;
70560;SDS011;58109;53.570;10.084;2023-03-01T15:32:34;6.53;;;4.10;;
70560;SDS011;58109;53.570;10.084;2023-03-01T15:38:00;5.47;;;4.10;;
70560;SDS011;58109;53.570;10.084;2023-03-01T15:40:29;8.30;;;4.40;;
70560;SDS011;58109;53.570;10.084;2023-03-01T15:42:59;10.50;;;4.23;;
70560;SDS011;58109;53.570;10.084;2023-03-01T15:45:31;6.90;;;4.13;;
70560;SDS011;58109;53.570;10.084;2023-03-01T15:48:05;8.60;;;3.70;;
70560;SDS011;58109;53.570;10.084;2023-03-01T15:50:42;9.03;;;4.20;;
70560;SDS011;58109;53.570;10.084;2023-03-01T15:53:12;11.63;;;5.40;;
70560;SDS011;58109;53.570;10.084;2023-03-01T15:55:41;8.63;;;4.57;;
70560;SDS011;58109;53.570;10.084;2023-03-01T15:58:13;10.87;;;4.33;;
70560;SDS011;58109;53.570;10.084;2023-03-01T16:00:42;11.50;;;5.87;;
70560;SDS011;58109;53.570;10.084;2023-03-01T16:03:10;11.80;;;5.53;;
70560;SDS011;58109;53.570;10.084;2023-03-01T16:05:48;10.90;;;6.27;;
70560;SDS011;58109;53.570;10.084;2023-03-01T16:08:17;14.10;;;6.10;;
70560;SDS011;58109;53.570;10.084;2023-03-01T16:10:45;9.67;;;5.27;;
70560;SDS011;58109;53.570;10.084;2023-03-01T16:13:14;9.73;;;5.83;;
70560;SDS011;58109;53.570;10.084;2023-03-01T16:15:42;19.53;;;6.50;;
70560;SDS011;58109;53.570;10.084;2023-03-01T16:18:08;13.93;;;6.50;;
70560;SDS011;58109;53.570;10.084;2023-03-01T16:20:37;14.83;;;6.90;;
70560;SDS011;58109;53.570;10.084;2023-03-01T16:23:06;12.60;;;7.67;;
70560;SDS011;58109;53.570;10.084;2023-03-01T16:25:32;13.70;;;7.40;;
70560;SDS011;58109;53.570;10.084;2023-03-01T16:28:00;15.03;;;8.53;;
70560;SDS011;58109;53.570;10.084;2023-03-01T16:30:30;12.87;;;9.30;;
70560;SDS011;58109;53.570;10.084;2023-03-01T16:32:58;15.20;;;8.27;;
70560;SDS011;58109;53.570;10.084;2023-03-01T16:35:26;21.13;;;8.70;;
70560;SDS011;58109;53.570;10.084;2023-03-01T16:37:56;17.60;;;8.30;;
70560;SDS011;58109;53.570;10.084;2023-03-01T16:40:26;14.47;;;8.80;;
70560;SDS011;58109;53.570;10.084;2023-03-01T16:42:55;18.13;;;8.80;;
70560;SDS011;58109;53.570;10.084;2023-03-01T16:45:24;14.13;;;7.70;;
70560;SDS011;58109;53.570;10.084;2023-03-01T16:47:50;13.60;;;6.40;;
70560;SDS011;58109;53.570;10.084;2023-03-01T16:50:18;15.40;;;7.57;;
70560;SDS011;58109;53.570;10.084;2023-03-01T16:52:43;10.00;;;5.73;;
70560;SDS011;58109;53.570;10.084;2023-03-01T16:55:09;10.77;;;5.67;;
70560;SDS011;58109;53.570;10.084;2023-03-01T16:57:35;9.07;;;6.00;;
70560;SDS011;58109;53.570;10.084;2023-03-01T17:00:04;12.40;;;5.90;;
70560;SDS011;58109;53.570;10.084;2023-03-01T17:02:32;13.60;;;6.70;;
70560;SDS011;58109;53.570;10.084;2023-03-01T17:04:59;23.20;;;7.03;;
70560;SDS011;58109;53.570;10.084;2023-03-01T17:07:27;14.43;;;6.70;;